createdAt,value
2022-09-26T00:01:32.105Z,9.50
2022-09-26T00:04:01.566Z,9.40
2022-09-26T00:06:29.256Z,9.40
2022-09-26T00:09:00.074Z,9.50
2022-09-26T00:11:29.564Z,9.40
2022-09-26T00:13:59.042Z,9.20
2022-09-26T00:16:27.101Z,9.20
2022-09-26T00:18:56.296Z,9.00
2022-09-26T00:21:24.779Z,9.00
2022-09-26T00:23:52.818Z,9.10
2022-09-26T00:26:21.048Z,9.20
2022-09-26T00:28:48.750Z,9.20
2022-09-26T00:31:19.310Z,9.20
2022-09-26T00:33:47.264Z,9.00
2022-09-26T00:36:15.217Z,9.00
2022-09-26T00:38:43.048Z,8.90
2022-09-26T00:41:11.088Z,8.90
2022-09-26T00:43:40.090Z,8.90
2022-09-26T00:46:14.322Z,9.00
2022-09-26T00:48:43.469Z,9.00
2022-09-26T00:51:11.525Z,9.00
2022-09-26T00:53:41.444Z,9.00
2022-09-26T00:56:18.810Z,9.00
2022-09-26T00:58:58.929Z,9.10
2022-09-26T01:01:27.948Z,9.10
2022-09-26T01:03:56.163Z,9.10
2022-09-26T01:06:24.326Z,9.10
2022-09-26T01:09:00.935Z,9.20
2022-09-26T01:11:29.858Z,9.20
2022-09-26T01:13:57.806Z,9.30
2022-09-26T01:16:26.007Z,9.20
2022-09-26T01:18:55.089Z,9.20
2022-09-26T01:21:41.382Z,9.10
2022-09-26T01:24:39.433Z,9.10
2022-09-26T01:27:40.219Z,9.10
2022-09-26T01:30:37.854Z,9.20
2022-09-26T01:33:08.992Z,9.30
2022-09-26T01:35:36.560Z,9.30
2022-09-26T01:38:16.568Z,9.20
2022-09-26T01:41:04.105Z,9.10
2022-09-26T01:43:36.053Z,9.10
2022-09-26T01:46:20.061Z,9.00
2022-09-26T01:48:52.092Z,8.80
2022-09-26T01:51:22.495Z,8.60
2022-09-26T01:53:53.557Z,8.50
2022-09-26T01:56:23.766Z,8.40
2022-09-26T01:58:59.605Z,8.40
2022-09-26T02:02:38.026Z,8.40
2022-09-26T02:05:12.804Z,8.60
2022-09-26T02:07:43.795Z,8.40
2022-09-26T02:10:47.923Z,8.30
2022-09-26T02:13:21.362Z,8.20
2022-09-26T02:15:53.015Z,8.20
2022-09-26T02:18:24.267Z,8.20
2022-09-26T02:20:58.343Z,8.20
2022-09-26T02:23:25.896Z,8.30
2022-09-26T02:25:58.365Z,8.30
2022-09-26T02:28:26.180Z,8.30
2022-09-26T02:30:54.365Z,8.30
2022-09-26T02:33:23.543Z,8.30
2022-09-26T02:35:54.130Z,8.30
2022-09-26T02:38:23.382Z,8.30
2022-09-26T02:41:10.528Z,8.30
2022-09-26T02:43:49.349Z,8.40
2022-09-26T02:46:39.702Z,8.40
2022-09-26T02:49:27.028Z,8.40
2022-09-26T02:52:04.387Z,8.40
2022-09-26T02:54:58.307Z,8.40
2022-09-26T02:57:45.138Z,8.30
2022-09-26T03:00:36.001Z,8.30
2022-09-26T03:03:26.258Z,8.30
2022-09-26T03:05:57.462Z,8.50
2022-09-26T03:08:27.152Z,8.90
2022-09-26T03:10:59.893Z,9.50
2022-09-26T03:13:28.096Z,9.70
2022-09-26T03:15:58.633Z,9.90
2022-09-26T03:18:31.824Z,10.00
2022-09-26T03:20:59.937Z,10.10
2022-09-26T03:23:28.165Z,10.30
2022-09-26T03:26:09.371Z,10.30
2022-09-26T03:28:39.004Z,10.40
2022-09-26T03:31:07.349Z,10.40
2022-09-26T03:33:55.919Z,10.50
2022-09-26T03:36:24.943Z,10.60
2022-09-26T03:38:53.144Z,10.60
2022-09-26T03:41:43.251Z,10.60
2022-09-26T03:44:27.462Z,10.60
2022-09-26T03:47:18.367Z,10.70
2022-09-26T03:49:54.374Z,10.70
2022-09-26T03:52:24.951Z,10.70
2022-09-26T03:54:53.598Z,10.70
2022-09-26T03:57:21.300Z,10.70
2022-09-26T03:59:55.281Z,10.70
2022-09-26T04:02:23.917Z,10.80
2022-09-26T04:05:05.531Z,10.80
2022-09-26T04:07:34.099Z,10.80
2022-09-26T04:10:02.167Z,10.80
2022-09-26T04:12:29.797Z,10.90
2022-09-26T04:14:57.408Z,10.90
2022-09-26T04:17:25.406Z,10.90
2022-09-26T04:19:53.662Z,10.90
2022-09-26T04:22:21.375Z,10.90
2022-09-26T04:24:48.975Z,10.90
2022-09-26T04:27:17.069Z,10.90
2022-09-26T04:29:46.673Z,10.90
2022-09-26T04:32:19.862Z,10.90
2022-09-26T04:35:06.692Z,11.00
2022-09-26T04:37:37.192Z,11.00
2022-09-26T04:40:05.537Z,11.00
2022-09-26T04:42:47.678Z,11.00
2022-09-26T04:45:16.554Z,11.10
2022-09-26T04:47:45.202Z,11.10
2022-09-26T04:50:25.232Z,11.10
2022-09-26T04:53:06.950Z,11.10
2022-09-26T04:55:39.705Z,11.10
2022-09-26T04:58:07.613Z,11.10
2022-09-26T05:00:48.031Z,11.10
2022-09-26T05:03:22.092Z,11.10
2022-09-26T05:05:50.466Z,11.10
2022-09-26T05:08:17.987Z,11.10
2022-09-26T05:10:51.692Z,11.10
2022-09-26T05:13:20.675Z,11.10
2022-09-26T05:15:50.192Z,11.10
2022-09-26T05:18:17.731Z,11.10
2022-09-26T05:20:48.375Z,11.10
2022-09-26T05:23:38.649Z,11.10
2022-09-26T05:26:22.531Z,11.10
2022-09-26T05:28:54.579Z,11.10
2022-09-26T05:31:26.410Z,11.20
2022-09-26T05:33:57.149Z,11.20
2022-09-26T05:36:25.165Z,11.10
2022-09-26T05:38:53.258Z,11.20
2022-09-26T05:41:22.061Z,11.20
2022-09-26T05:43:49.547Z,11.20
2022-09-26T05:46:17.410Z,11.20
2022-09-26T05:48:48.937Z,11.20
2022-09-26T05:51:23.497Z,11.20
2022-09-26T05:53:52.169Z,11.20
2022-09-26T05:56:26.976Z,11.20
2022-09-26T05:59:13.047Z,11.20
2022-09-26T06:01:59.247Z,11.30
2022-09-26T06:04:43.552Z,11.30
2022-09-26T06:07:40.219Z,11.30
2022-09-26T06:10:13.725Z,11.30
2022-09-26T06:12:51.707Z,11.40
2022-09-26T06:15:20.125Z,11.50
2022-09-26T06:17:48.556Z,11.50
2022-09-26T06:20:17.261Z,11.60
2022-09-26T06:22:45.032Z,11.60
2022-09-26T06:25:18.118Z,11.60
2022-09-26T06:28:01.737Z,11.70
2022-09-26T06:30:33.791Z,11.70
2022-09-26T06:33:11.312Z,11.80
2022-09-26T06:36:00.780Z,11.80
2022-09-26T06:38:33.646Z,11.90
2022-09-26T06:41:01.938Z,12.20
2022-09-26T06:43:30.633Z,12.40
2022-09-26T06:46:09.991Z,12.80
2022-09-26T06:48:48.445Z,12.50
2022-09-26T06:51:41.251Z,12.60
2022-09-26T06:54:10.469Z,12.40
2022-09-26T06:56:38.405Z,12.40
2022-09-26T06:59:10.949Z,12.70
2022-09-26T07:01:48.012Z,12.90
2022-09-26T07:04:35.965Z,13.00
2022-09-26T07:07:26.872Z,13.00
2022-09-26T07:09:56.303Z,12.90
2022-09-26T07:12:47.309Z,12.90
2022-09-26T07:15:20.132Z,12.90
2022-09-26T07:17:51.074Z,12.60
2022-09-26T07:20:40.095Z,12.40
2022-09-26T07:23:18.185Z,12.80
2022-09-26T07:25:46.819Z,13.10
2022-09-26T07:28:14.579Z,13.30
2022-09-26T07:30:48.875Z,12.90
2022-09-26T07:33:42.191Z,12.80
2022-09-26T07:36:12.887Z,12.50
2022-09-26T07:38:42.828Z,12.40
2022-09-26T07:41:12.103Z,12.20
2022-09-26T07:46:48.081Z,13.00
2022-09-26T07:49:41.278Z,12.90
2022-09-26T07:52:17.580Z,12.80
2022-09-26T07:55:10.101Z,12.80
2022-09-26T07:57:50.147Z,12.80
2022-09-26T08:00:56.531Z,12.80
2022-09-26T08:03:43.718Z,13.40
2022-09-26T08:06:23.994Z,13.60
2022-09-26T08:08:58.612Z,13.50
2022-09-26T08:11:45.486Z,13.60
2022-09-26T08:14:37.586Z,13.50
2022-09-26T08:17:32.567Z,13.60
2022-09-26T08:20:00.721Z,13.90
2022-09-26T08:22:29.876Z,13.90
2022-09-26T08:24:58.915Z,13.90
2022-09-26T08:27:37.817Z,14.30
2022-09-26T08:30:06.159Z,14.20
2022-09-26T08:32:33.871Z,14.40
2022-09-26T08:35:02.085Z,14.30
2022-09-26T08:38:09.236Z,14.00
2022-09-26T08:41:00.332Z,14.20
2022-09-26T08:44:07.066Z,14.20
2022-09-26T08:47:02.396Z,14.30
2022-09-26T08:50:08.180Z,14.60
2022-09-26T08:52:36.004Z,14.70
2022-09-26T08:55:27.825Z,14.80
2022-09-26T08:57:56.657Z,14.70
2022-09-26T09:00:26.229Z,15.30
2022-09-26T09:03:04.832Z,15.40
2022-09-26T09:05:42.934Z,15.20
2022-09-26T09:08:15.725Z,15.40
2022-09-26T09:11:23.139Z,15.40
2022-09-26T09:14:06.636Z,15.60
2022-09-26T09:17:11.154Z,16.20
2022-09-26T09:20:21.797Z,15.70
2022-09-26T09:23:33.612Z,14.80
2022-09-26T09:28:58.305Z,14.60
2022-09-26T09:31:29.747Z,14.80
2022-09-26T09:34:07.873Z,14.30
2022-09-26T09:36:56.893Z,14.50
2022-09-26T09:39:47.723Z,14.80
2022-09-26T09:42:36.945Z,15.10
2022-09-26T09:45:07.007Z,15.90
2022-09-26T09:47:38.508Z,15.80
2022-09-26T09:50:20.960Z,15.60
2022-09-26T09:52:57.637Z,15.40
2022-09-26T09:55:25.175Z,15.60
2022-09-26T09:58:11.755Z,15.90
2022-09-26T10:00:42.211Z,15.70
2022-09-26T10:03:25.538Z,16.20
2022-09-26T10:05:56.692Z,16.10
2022-09-26T10:08:41.002Z,16.00
2022-09-26T10:11:30.607Z,16.60
2022-09-26T10:14:01.306Z,16.80
2022-09-26T10:17:07.140Z,16.60
2022-09-26T10:19:43.497Z,16.60
2022-09-26T10:22:23.107Z,16.80
2022-09-26T10:24:51.795Z,17.10
2022-09-26T10:27:35.579Z,17.20
2022-09-26T10:30:27.659Z,17.70
2022-09-26T10:33:04.693Z,18.50
2022-09-26T10:35:59.571Z,17.80
2022-09-26T10:38:27.562Z,17.60
2022-09-26T10:41:06.563Z,17.10
2022-09-26T10:43:38.161Z,16.70
2022-09-26T10:46:25.861Z,15.90
2022-09-26T10:49:32.501Z,15.80
2022-09-26T10:52:29.474Z,15.80
2022-09-26T10:55:06.524Z,15.60
2022-09-26T10:57:40.917Z,15.80
2022-09-26T11:00:09.114Z,16.00
2022-09-26T11:02:38.295Z,16.60
2022-09-26T11:05:24.573Z,16.50
2022-09-26T11:08:14.275Z,16.90
2022-09-26T11:11:02.050Z,16.80
2022-09-26T11:13:51.159Z,17.00
2022-09-26T11:16:20.640Z,16.90
2022-09-26T11:19:14.555Z,17.00
2022-09-26T11:22:05.859Z,17.10
2022-09-26T11:24:45.915Z,16.90
2022-09-26T11:27:26.843Z,17.30
2022-09-26T11:29:57.524Z,16.70
2022-09-26T11:32:29.597Z,16.80
2022-09-26T11:35:03.708Z,16.80
2022-09-26T11:37:45.674Z,17.20
2022-09-26T11:40:32.133Z,17.70
2022-09-26T11:42:59.880Z,17.40
2022-09-26T11:45:29.520Z,18.20
2022-09-26T11:48:24.996Z,18.00
2022-09-26T11:51:52.472Z,18.60
2022-09-26T11:55:14.728Z,19.00
2022-09-26T11:58:03.620Z,18.00
2022-09-26T12:00:38.652Z,17.60
2022-09-26T12:03:06.549Z,18.30
2022-09-26T12:05:43.065Z,18.80
2022-09-26T12:08:11.812Z,18.40
2022-09-26T12:10:55.417Z,17.50
2022-09-26T12:13:36.689Z,17.30
2022-09-26T12:16:20.119Z,16.80
2022-09-26T12:18:59.598Z,16.50
2022-09-26T12:21:27.939Z,16.50
2022-09-26T12:24:00.816Z,16.80
2022-09-26T12:26:51.793Z,16.30
2022-09-26T12:29:28.828Z,16.40
2022-09-26T12:32:00.464Z,16.90
2022-09-26T12:34:46.780Z,16.90
2022-09-26T12:37:33.733Z,17.40
2022-09-26T12:40:10.404Z,17.10
2022-09-26T12:43:07.513Z,17.20
2022-09-26T12:45:42.285Z,17.00
2022-09-26T12:48:18.013Z,17.20
2022-09-26T12:50:50.702Z,16.70
2022-09-26T12:53:19.829Z,16.40
2022-09-26T12:55:52.857Z,16.60
2022-09-26T12:58:43.714Z,16.30
2022-09-26T13:01:28.161Z,15.90
2022-09-26T13:04:14.964Z,16.00
2022-09-26T13:07:17.385Z,15.90
2022-09-26T13:09:49.597Z,15.70
2022-09-26T13:12:38.994Z,15.90
2022-09-26T13:15:22.470Z,15.80
2022-09-26T13:18:02.385Z,15.90
2022-09-26T13:20:29.861Z,15.50
2022-09-26T13:22:58.250Z,15.60
2022-09-26T13:25:29.823Z,15.60
2022-09-26T13:28:12.647Z,15.70
2022-09-26T13:30:42.136Z,15.50
2022-09-26T13:33:20.551Z,15.50
2022-09-26T13:35:51.248Z,15.40
2022-09-26T13:38:35.713Z,15.40
2022-09-26T13:41:19.792Z,15.30
2022-09-26T13:43:50.540Z,15.50
2022-09-26T13:46:34.524Z,15.80
2022-09-26T13:49:26.232Z,15.70
2022-09-26T13:52:16.899Z,15.80
2022-09-26T13:54:59.183Z,16.00
2022-09-26T13:57:32.897Z,16.10
2022-09-26T14:00:30.061Z,16.10
2022-09-26T14:03:08.166Z,16.10
2022-09-26T14:05:41.737Z,16.10
2022-09-26T14:08:40.582Z,16.10
2022-09-26T14:11:32.719Z,16.00
2022-09-26T14:14:16.968Z,15.80
2022-09-26T14:16:45.371Z,15.60
2022-09-26T14:19:16.289Z,15.60
2022-09-26T14:21:58.432Z,15.00
2022-09-26T14:24:26.296Z,14.90
2022-09-26T14:27:03.703Z,14.90
2022-09-26T14:29:34.446Z,15.20
2022-09-26T14:32:15.627Z,15.40
2022-09-26T14:34:46.403Z,15.50
2022-09-26T14:37:17.886Z,15.20
2022-09-26T14:39:46.414Z,14.80
2022-09-26T14:42:17.433Z,14.90
2022-09-26T14:44:51.243Z,15.00
2022-09-26T14:47:23.779Z,14.80
2022-09-26T14:49:54.181Z,14.90
2022-09-26T14:52:22.371Z,14.80
2022-09-26T14:54:50.499Z,14.60
2022-09-26T14:57:23.972Z,14.50
2022-09-26T14:59:51.642Z,14.50
2022-09-26T15:02:25.933Z,14.50
2022-09-26T15:05:12.520Z,14.20
2022-09-26T15:07:48.896Z,14.00
2022-09-26T15:10:21.775Z,13.90
2022-09-26T15:12:57.092Z,13.80
2022-09-26T15:15:37.178Z,13.70
2022-09-26T15:18:08.277Z,13.50
2022-09-26T15:20:39.532Z,13.50
2022-09-26T15:23:27.848Z,13.40
2022-09-26T15:25:56.522Z,13.50
2022-09-26T15:28:24.837Z,13.40
2022-09-26T15:31:16.618Z,13.40
2022-09-26T15:33:44.932Z,13.30
2022-09-26T15:36:17.086Z,13.20
2022-09-26T15:38:47.347Z,13.10
2022-09-26T15:41:17.347Z,13.10
2022-09-26T15:43:45.036Z,13.00
2022-09-26T15:46:20.534Z,13.00
2022-09-26T15:48:48.066Z,13.00
2022-09-26T15:51:21.750Z,12.90
2022-09-26T15:53:57.883Z,12.90
2022-09-26T15:56:32.050Z,12.80
2022-09-26T15:59:01.095Z,12.80
2022-09-26T16:01:30.818Z,12.70
2022-09-26T16:04:02.873Z,12.70
2022-09-26T16:06:34.210Z,12.60
2022-09-26T16:09:11.181Z,12.50
2022-09-26T16:11:43.683Z,12.50
2022-09-26T16:14:41.647Z,12.50
2022-09-26T16:17:09.859Z,12.60
2022-09-26T16:19:43.354Z,12.60
2022-09-26T16:22:21.609Z,12.60
2022-09-26T16:24:49.874Z,12.60
2022-09-26T16:27:33.984Z,12.60
2022-09-26T16:30:05.367Z,12.60
2022-09-26T16:32:33.386Z,12.50
2022-09-26T16:35:11.527Z,12.50
2022-09-26T16:37:39.353Z,12.50
2022-09-26T16:40:17.266Z,12.50
2022-09-26T16:42:46.533Z,12.50
2022-09-26T16:45:14.728Z,12.50
2022-09-26T16:47:49.678Z,12.50
2022-09-26T16:50:34.108Z,12.50
2022-09-26T16:53:06.307Z,12.50
2022-09-26T16:55:35.854Z,12.50
2022-09-26T16:58:04.615Z,12.50
2022-09-26T17:00:53.000Z,12.40
2022-09-26T17:03:22.723Z,12.40
2022-09-26T17:05:51.240Z,12.30
2022-09-26T17:08:19.053Z,12.30
2022-09-26T17:10:46.794Z,12.30
2022-09-26T17:13:17.094Z,12.30
2022-09-26T17:15:47.535Z,12.30
2022-09-26T17:18:16.930Z,12.40
2022-09-26T17:20:45.070Z,12.30
2022-09-26T17:23:38.225Z,12.40
2022-09-26T17:26:02.985Z,12.40
2022-09-26T17:28:39.092Z,12.40
2022-09-26T17:31:08.453Z,12.30
2022-09-26T17:33:40.737Z,12.30
2022-09-26T17:36:12.696Z,12.40
2022-09-26T17:38:41.169Z,12.40
2022-09-26T17:41:10.160Z,12.40
2022-09-26T17:43:37.881Z,12.40
2022-09-26T17:46:06.381Z,12.40
2022-09-26T17:48:34.374Z,12.30
2022-09-26T17:51:02.723Z,12.30
2022-09-26T17:53:32.861Z,12.30
2022-09-26T17:56:06.330Z,12.30
2022-09-26T17:58:34.691Z,12.30
2022-09-26T18:01:03.687Z,12.40
2022-09-26T18:03:33.338Z,12.30
2022-09-26T18:06:01.367Z,12.30
2022-09-26T18:08:38.812Z,12.30
2022-09-26T18:11:10.710Z,12.30
2022-09-26T18:13:39.254Z,12.30
2022-09-26T18:16:07.363Z,12.30
2022-09-26T18:18:36.240Z,12.30
2022-09-26T18:21:04.155Z,12.20
2022-09-26T18:23:43.609Z,12.20
2022-09-26T18:26:21.416Z,12.20
2022-09-26T18:28:49.106Z,12.30
2022-09-26T18:31:16.997Z,12.30
2022-09-26T18:33:48.952Z,12.30
2022-09-26T18:36:16.519Z,12.30
2022-09-26T18:38:44.098Z,12.30
2022-09-26T18:41:15.926Z,12.30
2022-09-26T18:44:29.169Z,12.30
2022-09-26T18:47:01.686Z,12.30
2022-09-26T18:49:31.294Z,12.30
2022-09-26T18:51:59.114Z,12.40
2022-09-26T18:54:26.909Z,12.40
2022-09-26T18:57:13.322Z,12.40
2022-09-26T18:59:40.866Z,12.40
2022-09-26T19:02:18.059Z,12.40
2022-09-26T19:04:46.047Z,12.50
2022-09-26T19:07:21.085Z,12.50
2022-09-26T19:09:49.991Z,12.50
2022-09-26T19:12:17.604Z,12.60
2022-09-26T19:14:45.227Z,12.60
2022-09-26T19:17:13.053Z,12.60
2022-09-26T19:19:40.778Z,12.60
2022-09-26T19:22:11.714Z,12.60
2022-09-26T19:24:45.307Z,12.60
2022-09-26T19:27:24.697Z,12.60
2022-09-26T19:29:55.277Z,12.50
2022-09-26T19:32:24.976Z,12.50
2022-09-26T19:34:56.427Z,12.60
2022-09-26T19:37:24.173Z,12.50
2022-09-26T19:39:52.080Z,12.60
2022-09-26T19:42:19.844Z,12.60
2022-09-26T19:44:49.158Z,12.60
2022-09-26T19:47:21.554Z,12.60
2022-09-26T19:49:50.644Z,12.60
2022-09-26T19:52:19.902Z,12.60
2022-09-26T19:54:47.490Z,12.60
2022-09-26T19:57:15.944Z,12.70
2022-09-26T19:59:43.546Z,12.70
2022-09-26T20:02:20.890Z,12.70
2022-09-26T20:04:50.740Z,12.70
2022-09-26T20:07:19.591Z,12.70
2022-09-26T20:09:47.654Z,12.70
2022-09-26T20:12:15.607Z,12.60
2022-09-26T20:14:43.689Z,12.60
2022-09-26T20:17:21.380Z,12.60
2022-09-26T20:19:50.296Z,12.60
2022-09-26T20:22:20.449Z,12.60
2022-09-26T20:24:49.618Z,12.60
2022-09-26T20:27:19.321Z,12.50
2022-09-26T20:30:06.454Z,12.50
2022-09-26T20:32:36.501Z,12.50
2022-09-26T20:35:06.326Z,12.40
2022-09-26T20:37:39.446Z,12.40
2022-09-26T20:40:18.080Z,12.50
2022-09-26T20:42:48.542Z,12.50
2022-09-26T20:45:18.199Z,12.50
2022-09-26T20:47:46.093Z,12.40
2022-09-26T20:50:18.459Z,12.40
2022-09-26T20:52:46.728Z,12.30
2022-09-26T20:55:15.737Z,12.30
2022-09-26T20:57:43.363Z,12.30
2022-09-26T21:00:14.992Z,12.30
2022-09-26T21:02:42.766Z,12.30
2022-09-26T21:05:14.876Z,12.30
2022-09-26T21:07:49.675Z,12.30
2022-09-26T21:10:28.373Z,12.30
2022-09-26T21:12:55.978Z,12.30
2022-09-26T21:15:24.720Z,12.30
2022-09-26T21:17:52.765Z,12.30
2022-09-26T21:20:23.504Z,12.30
2022-09-26T21:23:18.036Z,12.40
2022-09-26T21:25:45.578Z,12.30
2022-09-26T21:28:13.363Z,12.30
2022-09-26T21:30:41.398Z,12.20
2022-09-26T21:33:12.016Z,12.10
2022-09-26T21:35:39.859Z,12.10
2022-09-26T21:38:07.395Z,12.10
2022-09-26T21:40:38.963Z,12.10
2022-09-26T21:43:14.247Z,12.10
2022-09-26T21:45:43.114Z,12.10
2022-09-26T21:48:11.174Z,12.00
2022-09-26T21:50:46.390Z,11.90
2022-09-26T21:53:16.811Z,11.80
2022-09-26T21:55:48.864Z,11.70
2022-09-26T21:58:18.052Z,11.60
2022-09-26T22:00:45.907Z,11.50
2022-09-26T22:03:13.388Z,11.50
2022-09-26T22:05:41.104Z,11.40
2022-09-26T22:08:08.875Z,11.40
2022-09-26T22:10:37.203Z,11.40
2022-09-26T22:13:04.905Z,11.40
2022-09-26T22:15:38.880Z,11.40
2022-09-26T22:18:06.471Z,11.40
2022-09-26T22:20:34.163Z,11.40
2022-09-26T22:23:02.134Z,11.40
2022-09-26T22:25:30.880Z,11.40
2022-09-26T22:27:58.525Z,11.40
2022-09-26T22:30:26.409Z,11.40
2022-09-26T22:32:55.843Z,11.30
2022-09-26T22:35:23.853Z,11.30
2022-09-26T22:37:51.786Z,11.30
2022-09-26T22:40:19.739Z,11.30
2022-09-26T22:42:49.096Z,11.30
2022-09-26T22:45:17.335Z,11.20
2022-09-26T22:47:44.854Z,11.20
2022-09-26T22:50:17.331Z,11.20
2022-09-26T22:52:46.891Z,11.20
2022-09-26T22:55:18.665Z,11.20
2022-09-26T22:57:49.862Z,11.20
2022-09-26T23:00:17.400Z,11.20
2022-09-26T23:02:45.609Z,11.30
2022-09-26T23:05:13.282Z,11.20
2022-09-26T23:07:41.172Z,11.30
2022-09-26T23:10:10.609Z,11.20
2022-09-26T23:12:38.291Z,11.30
2022-09-26T23:15:06.338Z,11.20
2022-09-26T23:17:33.734Z,11.20
2022-09-26T23:20:01.433Z,11.20
2022-09-26T23:22:29.215Z,11.20
2022-09-26T23:24:56.882Z,11.10
2022-09-26T23:27:26.258Z,11.10
2022-09-26T23:29:55.388Z,11.10
2022-09-26T23:32:22.926Z,11.10
2022-09-26T23:34:50.630Z,11.00
2022-09-26T23:37:18.634Z,11.00
2022-09-26T23:39:49.298Z,11.00
2022-09-26T23:42:16.916Z,10.90
2022-09-26T23:44:45.238Z,10.90
2022-09-26T23:47:13.091Z,10.90
2022-09-26T23:49:40.717Z,10.90
2022-09-26T23:52:08.747Z,10.90
2022-09-26T23:54:38.045Z,10.80
2022-09-26T23:57:05.698Z,10.80
2022-09-26T23:59:33.306Z,10.80
